129 coaches online • Server time: 19:47
* * * Did you know? The highest combined winnings in a single match is 250000.
Log in
Recent Forum Topics goto Post FUMBBL Memesgoto Post Where are all the Rh...goto Post Double skills not sh...
[B] Isha's Willows
Ruthsul#1 
Wardancer 
MA
9
ST
3
AG
5
AV
7
G
77
R
1516
B
295
P
112
F
0
Spp
316
Cp
26
Td
69
In
0
Cs
9
Mvp
13
Injuries
d, m
Skills
Block
Dodge
Leap
Tackle
Side Step
+AG
Sure Feet
Pass
+MA
Match performances
Date Opponent Cp TD It Cs Mvp Spp
2018-11-15 [BT2] Hammer Horror Halfwits 0 0 0 0 1 5
2018-11-17 BT2-Doudouladies 2 0 0 0 1 7
2018-11-21 Fistful of Fur 1 1 0 0 1 9
2018-11-22 Dark Cultists of the East 0 0 0 0 1 5
2018-11-29 zog zog powa 0 0 0 0 1 5
2018-12-15 [B] Chamber No.9, Verse 32 0 1 0 0 0 3
2018-12-17 That Orcward Moment 0 1 0 0 0 3
2019-02-14 ManCake 0 1 0 0 0 3
2019-03-23 Geordie Green Giants 0 1 0 0 1 8
2019-03-27 Modernists 0 2 0 0 1 11
2019-03-31 Ukonaiviii 0 1 0 1 0 5
2019-04-01 Cobblestone Eaters 0 1 0 0 0 3
2019-04-20 Bannaton 0 2 0 0 0 6
2019-06-01 Hot as Bulls 0 0 0 0 1 5
2019-06-14 Fecal Fighters 1 3 0 0 0 10
2019-06-15 [BT2] Norse Frenzy 0 1 0 0 0 3
2019-06-16 GIC 1 0 0 0 0 1
2019-06-21 [BT2]Dead Slayers 1 0 0 0 1 6
2019-07-01 les aigris 0 2 0 0 0 6
2019-07-02 les aigris 1 1 0 2 0 8
2019-07-05 Halthiors {BBT2} Warriors 0 1 0 0 0 3
2019-07-10 les aigris 0 1 0 0 0 3
2019-07-17 Skinniest 0 1 0 0 0 3
2019-07-25 Les Fils du Nécronomicon 1 1 0 0 0 4
2019-08-11 Chaotic Warps 1 1 0 2 0 8
2019-08-12 Cheese'n'Roll 1 2 0 0 1 12
2019-08-16 BT2 Spartako NO 1 1 0 0 0 4
2019-08-23 BT2 Spartako HU 1 1 0 0 1 9
2019-09-06 [Bx] Nekro-Bullas 0 1 0 0 0 3
2019-09-07 Sakalath 0 1 0 0 1 8
2019-10-09 ♥BT3♥ Blissful Heartbreakers 0 1 0 0 1 8
2019-10-11 [B]arnsley BBC 0 1 0 0 0 3
2019-10-11 BK Bölden 1 2 0 0 0 7
2019-10-15 [B]arnsley BBC 0 1 0 0 0 3
2019-10-28 Revenge of Hagabounga 0 1 0 0 0 3
2019-11-01 We are Survivors 0 1 0 0 0 3
2019-11-04 Zompattori 0 1 0 0 0 3
2019-11-09 Timaeus and Critias 1 2 0 0 0 7
2019-11-21 Sherwood Stags 1 0 0 0 0 1
2019-11-24 Kaostiadores 1 1 0 0 0 4
2019-11-26 Elfi Bercattivi 1 1 0 0 0 4
2019-11-27 [JSBT]Khaotic Misbehaviour 0 1 0 0 0 3
2019-12-06 Greenwich Grudge-Keepers 1 1 0 1 0 6
2019-12-08 [BT3] Purple Delvers 0 2 0 0 0 6
2019-12-11 I Slann³ 1 1 0 0 0 4
2019-12-13 babouchka 1 0 0 0 0 1
2019-12-19 Petits rats en boite 0 2 0 0 0 6
2020-01-05 BT3 Philipprocter Lizrads 1 0 0 0 0 1
2020-01-25 lord of stone 0 3 0 0 0 9
2020-02-01 Zargos Lords 0 1 0 0 0 3
2020-02-07 Valeska's Revenge 1 1 0 0 0 4
2020-02-14 Dragonphoenix Scumbags XVI 0 2 0 0 0 6
2020-02-23 Sezerem te 1 1 0 0 0 4
2020-03-01 Bellmans Apostlar 0 2 0 1 0 8
2020-03-02 BBT2 Wratstlers 0 2 0 0 0 6
2020-03-04 [B]arnsley BBC 0 1 0 0 0 3
2020-03-08 sillyLegomen 0 1 0 0 0 3
2020-03-14 Filles du coupeur de joints 1 0 0 0 0 1
2020-03-23 BBox rotten blitzer deal dosh 1 1 0 0 0 4
2020-04-04 khrisqrach cragwalker 0 1 0 0 0 3
2020-04-04 An Inferior Team 0 1 0 0 0 3
2020-04-12 Cheese'n'Roll 1 1 0 0 0 4
2020-04-12 Viceroy 0 1 0 0 0 3
2020-04-12 Sun bandits 0 1 0 0 0 3
2020-04-21 Temple of Hatshepsut [BT3] 0 0 0 1 0 2
2020-04-22 I Promise, Sun Will Rise Again 0 0 0 1 0 2
2020-05-03 Gloubiboulga BBC 0 1 0 0 0 3